Time;durP1;ratioP1;P1;durP2;ratioP2;P2;SDS_P1;SDS_P2;PMS_P1;PMS_P2;Temp;Humidity;BMP_temperature;BMP_pressure;BME280_temperature;BME280_humidity;BME280_pressure;Samples;Min_cycle;Max_cycle;Signal;HPM_P1;HPM_P2
2022/11/15 00:00:55;;;;;;;11.30;4.55;;;8.00;99.90;;;;;;5002631;28;20046;-72
2022/11/15 00:03:24;;;;;;;11.70;4.75;;;8.00;99.90;;;;;;4984259;28;20108;-72
2022/11/15 00:05:50;;;;;;;11.80;5.18;;;8.00;99.90;;;;;;4985075;28;20037;-72
2022/11/15 00:08:16;;;;;;;11.32;5.55;;;7.90;99.90;;;;;;4986211;28;20537;-72
2022/11/15 00:10:42;;;;;;;8.75;4.63;;;7.90;99.90;;;;;;5001658;28;20045;-73
2022/11/15 00:13:09;;;;;;;11.27;5.18;;;7.90;99.90;;;;;;4983599;28;20503;-73
2022/11/15 00:15:40;;;;;;;9.60;4.88;;;7.80;99.90;;;;;;4968316;28;20042;-72
2022/11/15 00:18:10;;;;;;;8.88;4.72;;;7.90;99.90;;;;;;4986382;28;20049;-73
2022/11/15 00:20:36;;;;;;;11.00;4.78;;;7.90;99.90;;;;;;4981283;28;20050;-72
2022/11/15 00:23:04;;;;;;;10.90;4.30;;;7.90;99.90;;;;;;4985422;28;20038;-72
2022/11/15 00:25:29;;;;;;;8.57;4.35;;;7.90;99.90;;;;;;4969266;28;20057;-72
2022/11/15 00:27:56;;;;;;;8.45;4.43;;;7.90;99.90;;;;;;4983133;28;20034;-72
2022/11/15 00:30:22;;;;;;;11.00;5.00;;;7.90;99.90;;;;;;4984523;28;20521;-72
2022/11/15 00:32:47;;;;;;;6.93;3.65;;;8.00;99.90;;;;;;4986736;28;20033;-72
2022/11/15 00:35:13;;;;;;;10.68;4.28;;;8.00;99.90;;;;;;4983307;28;20085;-72
2022/11/15 00:37:39;;;;;;;9.90;3.80;;;8.00;99.90;;;;;;5003247;28;20123;-72
2022/11/15 00:40:05;;;;;;;9.65;4.18;;;8.00;99.90;;;;;;4984977;28;20070;-72
2022/11/15 00:42:30;;;;;;;8.30;4.53;;;8.00;99.90;;;;;;4983238;28;20042;-73
2022/11/15 00:44:56;;;;;;;10.43;4.35;;;8.00;99.90;;;;;;4970111;28;20038;-72
2022/11/15 00:47:21;;;;;;;7.85;4.10;;;8.00;99.90;;;;;;4982213;28;20048;-72
2022/11/15 00:49:47;;;;;;;10.93;5.22;;;8.00;99.90;;;;;;4984754;28;20184;-73
2022/11/15 00:52:13;;;;;;;9.13;4.40;;;8.00;99.90;;;;;;4984762;28;20045;-72
2022/11/15 00:54:38;;;;;;;15.35;4.65;;;8.00;99.90;;;;;;4984738;28;20067;-72
2022/11/15 00:57:04;;;;;;;9.30;5.05;;;8.00;99.90;;;;;;4985767;28;20526;-72
2022/11/15 00:59:30;;;;;;;10.32;5.47;;;8.00;99.90;;;;;;4982411;28;20057;-72
2022/11/15 01:01:56;;;;;;;9.18;4.43;;;8.00;99.90;;;;;;4984409;28;20124;-73
2022/11/15 01:04:21;;;;;;;8.85;4.50;;;8.00;99.90;;;;;;4985034;28;20128;-72
2022/11/15 01:06:47;;;;;;;8.00;4.38;;;8.00;99.90;;;;;;4984936;28;20034;-72
2022/11/15 01:09:13;;;;;;;10.25;4.53;;;8.00;99.90;;;;;;4985628;28;20044;-72
2022/11/15 01:11:39;;;;;;;7.50;4.40;;;8.10;99.90;;;;;;4985020;28;20042;-72
2022/11/15 01:14:05;;;;;;;10.70;4.93;;;8.00;99.90;;;;;;4982473;28;20517;-72
2022/11/15 01:16:31;;;;;;;12.93;4.90;;;8.00;99.90;;;;;;4986317;28;20042;-72
2022/11/15 01:18:56;;;;;;;8.23;3.90;;;8.10;99.90;;;;;;4982701;28;20037;-73
2022/11/15 01:21:22;;;;;;;11.55;4.40;;;8.00;99.90;;;;;;4963713;28;20045;-73
2022/11/15 01:23:47;;;;;;;10.32;3.83;;;8.00;99.90;;;;;;4984483;28;20076;-72
2022/11/15 01:26:15;;;;;;;9.32;4.10;;;8.10;99.90;;;;;;4984486;28;20042;-72
2022/11/15 01:28:41;;;;;;;8.60;4.35;;;8.00;99.90;;;;;;4997154;28;20514;-72
2022/11/15 01:31:14;;;;;;;14.88;4.80;;;8.00;99.90;;;;;;4980944;28;20068;-72
2022/11/15 01:33:40;;;;;;;11.93;4.78;;;8.10;99.90;;;;;;4984067;28;20034;-73
2022/11/15 01:36:07;;;;;;;12.80;5.30;;;8.10;99.90;;;;;;4976099;28;20054;-72
2022/11/15 01:38:33;;;;;;;15.13;5.72;;;8.10;99.90;;;;;;4985291;28;20495;-73
2022/11/15 01:40:59;;;;;;;13.43;4.80;;;8.10;99.90;;;;;;4966818;28;20078;-72
2022/11/15 01:43:34;;;;;;;14.07;5.25;;;8.10;99.90;;;;;;4968506;28;20980;-73
2022/11/15 01:46:22;;;;;;;8.02;4.07;;;8.10;99.90;;;;;;4979257;28;20073;-73
2022/11/15 01:48:51;;;;;;;10.23;5.32;;;8.10;99.90;;;;;;4961460;28;20047;-73
2022/11/15 01:51:19;;;;;;;12.57;4.38;;;8.10;99.90;;;;;;4983677;28;20030;-72
2022/11/15 01:53:49;;;;;;;13.07;4.22;;;8.10;99.90;;;;;;4983504;28;20046;-72
2022/11/15 01:56:19;;;;;;;11.35;4.25;;;8.10;99.90;;;;;;4984184;28;20120;-72
2022/11/15 01:58:46;;;;;;;12.20;4.57;;;8.10;99.90;;;;;;4985735;28;20099;-73
2022/11/15 02:01:13;;;;;;;13.68;5.53;;;8.10;99.90;;;;;;4968020;28;20038;-73
2022/11/15 02:03:59;;;;;;;12.52;5.88;;;8.20;99.90;;;;;;4983514;28;20045;-72
2022/11/15 02:06:24;;;;;;;11.68;4.30;;;8.20;99.90;;;;;;4982546;28;20084;-72
2022/11/15 02:08:51;;;;;;;9.23;4.47;;;8.20;99.90;;;;;;4983204;28;20038;-73
2022/11/15 02:11:17;;;;;;;16.13;5.30;;;8.20;99.90;;;;;;4967801;28;20038;-73
2022/11/15 02:13:43;;;;;;;10.52;5.03;;;8.20;99.90;;;;;;4986023;28;20045;-73
2022/11/15 02:16:21;;;;;;;9.95;4.90;;;8.20;99.90;;;;;;4986294;28;20041;-72
2022/11/15 02:19:13;;;;;;;7.13;3.95;;;8.20;99.90;;;;;;4982275;28;20486;-72
2022/11/15 02:21:58;;;;;;;9.27;4.63;;;8.20;99.90;;;;;;4983615;28;20046;-72
2022/11/15 02:24:48;;;;;;;11.27;4.75;;;8.20;99.90;;;;;;4985639;28;20041;-72
2022/11/15 02:27:24;;;;;;;14.50;5.47;;;8.30;99.90;;;;;;4988576;28;20056;-72
2022/11/15 02:30:11;;;;;;;9.63;4.93;;;8.20;99.90;;;;;;4969232;28;20057;-72
2022/11/15 02:32:53;;;;;;;10.85;5.20;;;8.30;99.90;;;;;;4985559;28;20045;-72
2022/11/15 02:35:29;;;;;;;10.95;4.85;;;8.30;99.90;;;;;;4985299;28;20089;-72
2022/11/15 02:37:59;;;;;;;10.32;4.20;;;8.30;99.90;;;;;;4986170;28;20068;-72
2022/11/15 02:40:38;;;;;;;8.20;4.13;;;8.30;99.90;;;;;;4987676;28;20624;-72
2022/11/15 02:49:17;;;;;;;16.17;5.03;;;8.30;99.90;;;;;;4988050;28;20085;-72
2022/11/15 02:51:46;;;;;;;14.52;5.20;;;8.30;99.90;;;;;;5004337;28;20046;-72
2022/11/15 02:54:23;;;;;;;10.73;4.53;;;8.30;99.90;;;;;;5004188;28;20042;-72
2022/11/15 02:56:50;;;;;;;10.85;4.38;;;8.30;99.90;;;;;;4987685;28;20126;-73
2022/11/15 03:00:00;;;;;;;12.52;5.35;;;8.40;99.90;;;;;;4985344;28;20049;-72
2022/11/15 03:02:34;;;;;;;14.90;4.75;;;8.30;99.90;;;;;;4960863;28;20077;-73
2022/11/15 03:05:15;;;;;;;13.90;4.85;;;8.40;99.90;;;;;;4986038;28;20042;-73
2022/11/15 03:08:05;;;;;;;12.65;5.07;;;8.40;99.90;;;;;;4987226;28;20045;-72
2022/11/15 03:10:51;;;;;;;13.73;4.75;;;8.40;99.90;;;;;;4998568;28;20053;-73
2022/11/15 03:13:25;;;;;;;17.70;5.63;;;8.40;99.90;;;;;;4987417;28;20053;-72
2022/11/15 03:16:04;;;;;;;13.73;5.60;;;8.40;99.90;;;;;;4984444;28;20092;-73
2022/11/15 03:18:41;;;;;;;13.88;5.20;;;8.40;99.90;;;;;;5003596;28;20141;-73
2022/11/15 03:21:09;;;;;;;11.02;4.32;;;8.40;99.90;;;;;;4985385;28;20422;-73
2022/11/15 03:23:37;;;;;;;13.52;5.43;;;8.40;99.90;;;;;;4986611;28;20064;-73
2022/11/15 03:26:07;;;;;;;11.15;5.10;;;8.40;99.90;;;;;;4985886;28;20038;-73
2022/11/15 03:28:44;;;;;;;10.80;5.30;;;8.40;99.90;;;;;;4984448;28;20037;-72
2022/11/15 03:33:59;;;;;;;14.45;5.53;;;8.40;99.90;;;;;;4987365;28;20122;-73
2022/11/15 03:36:26;;;;;;;13.52;5.25;;;8.40;99.90;;;;;;4984382;28;20449;-72
2022/11/15 03:39:02;;;;;;;11.73;5.47;;;8.40;99.90;;;;;;4986139;28;20045;-73
2022/11/15 03:41:38;;;;;;;14.65;5.15;;;8.50;99.90;;;;;;4986795;28;20119;-73
2022/11/15 03:44:24;;;;;;;16.08;5.88;;;8.50;99.90;;;;;;4986588;28;20033;-73
2022/11/15 03:47:02;;;;;;;12.57;5.45;;;8.40;99.90;;;;;;4997841;28;20156;-73
2022/11/15 03:49:32;;;;;;;13.35;5.22;;;8.50;99.90;;;;;;4987391;28;20076;-73
2022/11/15 03:51:59;;;;;;;11.32;5.18;;;8.50;99.90;;;;;;4985698;28;20034;-73
2022/11/15 03:54:24;;;;;;;11.90;5.47;;;8.50;99.90;;;;;;4969466;28;20572;-73
2022/11/15 03:56:50;;;;;;;18.65;5.15;;;8.50;99.90;;;;;;4984282;28;20045;-73
2022/11/15 03:59:15;;;;;;;13.50;5.47;;;8.50;99.90;;;;;;4987200;28;20590;-73
2022/11/15 04:01:41;;;;;;;8.10;4.45;;;8.50;99.90;;;;;;4986060;28;20491;-73
2022/11/15 04:04:06;;;;;;;10.27;4.70;;;8.50;99.90;;;;;;4986510;28;20108;-73
2022/11/15 04:06:32;;;;;;;14.43;5.78;;;8.50;99.90;;;;;;4986135;28;20100;-73
2022/11/15 04:08:58;;;;;;;11.63;5.07;;;8.50;99.90;;;;;;4984386;28;20076;-73
2022/11/15 04:11:23;;;;;;;15.98;5.65;;;8.50;99.90;;;;;;4984582;28;20034;-73
2022/11/15 04:13:49;;;;;;;17.17;6.07;;;8.60;99.90;;;;;;4986538;28;20052;-73
2022/11/15 04:16:14;;;;;;;13.57;4.97;;;8.60;99.90;;;;;;4984550;28;20043;-73
2022/11/15 04:18:40;;;;;;;11.43;5.60;;;8.60;99.90;;;;;;4985549;28;20045;-73
2022/11/15 04:26:20;;;;;;;11.10;5.57;;;8.60;99.90;;;;;;4984540;28;20072;-73
2022/11/15 04:31:30;;;;;;;14.07;6.55;;;8.60;99.90;;;;;;4983133;28;20133;-73
2022/11/15 04:33:56;;;;;;;14.13;6.07;;;8.70;99.90;;;;;;4966138;28;20851;-73
2022/11/15 04:39:06;;;;;;;14.38;5.60;;;8.70;99.90;;;;;;4981702;28;20060;-73
2022/11/15 04:41:32;;;;;;;19.60;6.63;;;8.70;99.90;;;;;;4984891;28;20056;-73
2022/11/15 04:43:57;;;;;;;13.52;5.97;;;8.80;99.90;;;;;;4984789;28;20034;-73
2022/11/15 04:46:23;;;;;;;16.98;5.60;;;8.80;99.90;;;;;;4969468;28;20041;-73
2022/11/15 04:48:50;;;;;;;16.00;6.95;;;8.80;99.90;;;;;;4983578;28;20197;-73
2022/11/15 04:51:15;;;;;;;13.50;5.80;;;8.80;99.90;;;;;;4986224;28;20040;-73
2022/11/15 04:53:41;;;;;;;17.95;6.15;;;8.80;99.90;;;;;;4987237;28;20060;-73
2022/11/15 04:56:07;;;;;;;13.57;5.72;;;8.80;99.90;;;;;;4985238;28;20045;-73
2022/11/15 04:58:33;;;;;;;17.52;6.43;;;8.80;99.90;;;;;;4984798;28;20133;-73
2022/11/15 05:01:07;;;;;;;13.45;6.55;;;8.90;99.90;;;;;;4984047;28;20121;-73
2022/11/15 05:06:17;;;;;;;19.88;7.05;;;8.90;99.90;;;;;;4984711;28;20034;-73
2022/11/15 05:08:43;;;;;;;12.80;5.80;;;8.90;99.90;;;;;;4972719;28;20514;-73
2022/11/15 05:11:08;;;;;;;17.55;6.07;;;8.90;99.90;;;;;;4986096;28;20113;-73
2022/11/15 05:13:34;;;;;;;12.40;6.35;;;9.00;99.90;;;;;;4984598;28;20099;-73
2022/11/15 05:15:59;;;;;;;11.35;5.72;;;9.00;99.90;;;;;;4983292;28;20480;-73
2022/11/15 05:18:25;;;;;;;15.73;5.78;;;9.00;99.90;;;;;;4983806;28;20041;-73
2022/11/15 05:20:50;;;;;;;14.20;6.05;;;9.00;99.90;;;;;;4984172;28;20042;-73
2022/11/15 05:23:16;;;;;;;12.73;5.85;;;9.10;99.90;;;;;;4986349;28;20037;-73
2022/11/15 05:25:41;;;;;;;13.45;6.47;;;9.10;99.90;;;;;;4985443;28;20034;-73
2022/11/15 05:28:07;;;;;;;12.00;6.45;;;9.10;99.90;;;;;;4980445;28;20075;-73
2022/11/15 05:30:33;;;;;;;14.00;5.43;;;9.10;99.90;;;;;;4984391;28;20053;-73
2022/11/15 05:32:59;;;;;;;17.85;6.18;;;9.20;99.90;;;;;;5002540;28;20057;-73
2022/11/15 05:35:48;;;;;;;16.10;6.50;;;9.20;99.90;;;;;;4980847;28;20050;-73
2022/11/15 05:38:14;;;;;;;15.82;6.43;;;9.20;99.90;;;;;;4980176;28;20030;-73
2022/11/15 05:40:40;;;;;;;13.13;6.15;;;9.20;99.90;;;;;;4980976;28;20515;-73
2022/11/15 05:43:06;;;;;;;11.93;6.35;;;9.30;99.90;;;;;;4979510;28;20436;-73
2022/11/15 05:45:33;;;;;;;16.25;5.82;;;9.30;99.90;;;;;;4980073;28;20038;-73
2022/11/15 05:48:04;;;;;;;13.82;6.95;;;9.30;99.90;;;;;;4982685;28;20038;-73
2022/11/15 05:50:30;;;;;;;13.02;5.90;;;9.30;99.90;;;;;;4982153;28;20050;-73
2022/11/15 05:52:56;;;;;;;22.15;6.82;;;9.30;99.90;;;;;;4980480;28;20038;-73
2022/11/15 05:55:22;;;;;;;14.98;6.80;;;9.40;99.90;;;;;;4981707;28;20053;-73
2022/11/15 05:57:47;;;;;;;11.98;4.97;;;9.40;99.90;;;;;;4960684;28;20475;-73
2022/11/15 06:00:13;;;;;;;12.68;5.57;;;9.40;99.90;;;;;;4979515;28;20113;-73
2022/11/15 06:02:39;;;;;;;12.98;6.32;;;9.40;99.90;;;;;;4984514;28;20049;-73
2022/11/15 06:05:05;;;;;;;15.63;6.60;;;9.50;99.90;;;;;;4983851;28;20035;-73
2022/11/15 06:07:30;;;;;;;14.65;6.00;;;9.50;99.90;;;;;;4986382;28;20038;-73
2022/11/15 06:09:56;;;;;;;12.52;5.22;;;9.50;99.90;;;;;;4984568;28;20042;-73
2022/11/15 06:12:21;;;;;;;15.45;6.53;;;9.50;99.90;;;;;;4982318;28;20046;-73
2022/11/15 06:14:47;;;;;;;13.18;5.65;;;9.60;99.90;;;;;;4986757;28;20125;-73
2022/11/15 06:17:13;;;;;;;16.98;5.90;;;9.60;99.90;;;;;;4984849;28;20116;-73
2022/11/15 06:19:38;;;;;;;11.80;4.93;;;9.60;99.90;;;;;;4984084;28;20392;-73
2022/11/15 06:22:04;;;;;;;18.77;6.45;;;9.60;99.90;;;;;;4985160;28;20503;-73
2022/11/15 06:24:29;;;;;;;13.30;5.90;;;9.60;99.90;;;;;;4969284;28;20612;-73
2022/11/15 06:26:55;;;;;;;13.27;6.13;;;9.60;99.90;;;;;;4984396;28;20113;-73
2022/11/15 06:29:21;;;;;;;14.13;5.15;;;9.70;99.90;;;;;;4984525;28;20042;-73
2022/11/15 06:31:46;;;;;;;14.13;5.70;;;9.70;99.90;;;;;;4985312;28;20042;-73
2022/11/15 06:34:12;;;;;;;9.55;4.97;;;9.70;99.90;;;;;;4987092;28;20049;-73
2022/11/15 06:36:37;;;;;;;13.82;5.85;;;9.70;99.90;;;;;;4989148;28;20091;-73
2022/11/15 06:39:04;;;;;;;11.23;5.38;;;9.80;99.90;;;;;;5002915;28;20121;-73
2022/11/15 06:41:29;;;;;;;12.93;5.13;;;9.80;99.90;;;;;;4984980;28;21647;-73
2022/11/15 06:43:56;;;;;;;13.75;6.50;;;9.80;99.90;;;;;;4986818;28;20046;-73
2022/11/15 06:46:22;;;;;;;11.20;4.38;;;9.80;99.90;;;;;;4987108;28;20066;-73
2022/11/15 06:48:50;;;;;;;14.18;5.10;;;9.80;99.90;;;;;;4988745;28;20528;-73
2022/11/15 06:51:16;;;;;;;9.55;4.82;;;9.90;99.90;;;;;;4988896;28;20771;-73
2022/11/15 06:53:42;;;;;;;10.85;4.47;;;9.90;99.90;;;;;;4988212;28;20049;-73
2022/11/15 06:56:07;;;;;;;11.13;5.20;;;9.90;99.90;;;;;;4981084;28;20033;-73
2022/11/15 06:58:33;;;;;;;13.45;5.05;;;9.90;99.90;;;;;;4980366;28;20030;-73
2022/11/15 07:01:05;;;;;;;13.25;5.50;;;9.90;99.90;;;;;;4978251;28;20172;-73
2022/11/15 07:03:30;;;;;;;15.07;5.20;;;9.90;99.90;;;;;;4983262;28;20045;-73
2022/11/15 07:05:57;;;;;;;12.45;5.03;;;9.90;99.90;;;;;;4966626;28;20499;-73
2022/11/15 07:08:24;;;;;;;13.82;5.53;;;10.00;99.90;;;;;;4984123;28;20092;-73
2022/11/15 07:10:50;;;;;;;12.85;5.00;;;10.00;99.90;;;;;;4980347;28;20097;-73
2022/11/15 07:13:15;;;;;;;10.25;4.45;;;10.00;99.90;;;;;;4995700;28;20069;-73
2022/11/15 07:15:41;;;;;;;12.77;4.93;;;10.00;99.90;;;;;;4980947;28;20133;-72
2022/11/15 07:18:07;;;;;;;10.95;4.50;;;10.00;99.90;;;;;;4980979;28;20042;-72
2022/11/15 07:20:32;;;;;;;8.90;4.15;;;10.00;99.90;;;;;;4979058;28;20050;-73
2022/11/15 07:23:02;;;;;;;10.63;4.53;;;10.00;99.90;;;;;;4962208;28;21683;-72
2022/11/15 07:25:28;;;;;;;11.60;4.50;;;10.00;99.90;;;;;;4977853;28;20373;-73
2022/11/15 07:27:55;;;;;;;9.23;4.32;;;10.10;99.90;;;;;;4961807;28;20118;-72
2022/11/15 07:30:20;;;;;;;13.70;4.47;;;10.10;99.90;;;;;;4963122;28;20092;-73
2022/11/15 07:32:46;;;;;;;9.77;4.10;;;10.10;99.90;;;;;;4978463;28;20050;-72
2022/11/15 07:35:12;;;;;;;9.85;4.65;;;10.10;99.90;;;;;;4978877;28;20065;-73
2022/11/15 07:37:37;;;;;;;11.13;3.92;;;10.10;99.90;;;;;;4976628;28;20125;-72
2022/11/15 07:40:03;;;;;;;10.95;4.78;;;10.10;99.90;;;;;;4988764;28;20045;-72
2022/11/15 07:45:16;;;;;;;11.55;5.00;;;10.10;99.90;;;;;;4966193;28;20061;-72
2022/11/15 07:47:45;;;;;;;10.10;4.72;;;10.20;99.90;;;;;;4979382;28;20484;-72
2022/11/15 07:50:11;;;;;;;11.52;4.55;;;10.20;99.90;;;;;;4973813;28;20068;-72
2022/11/15 07:52:37;;;;;;;10.10;4.40;;;10.20;99.90;;;;;;4973559;28;20131;-72
2022/11/15 07:55:02;;;;;;;9.00;4.68;;;10.20;99.90;;;;;;4998514;28;20049;-72
2022/11/15 07:57:29;;;;;;;8.25;4.32;;;10.20;99.90;;;;;;4974207;28;20143;-73
2022/11/15 07:59:55;;;;;;;10.63;4.50;;;10.30;99.90;;;;;;4956606;28;20085;-73
2022/11/15 08:02:20;;;;;;;5.50;3.47;;;10.30;99.90;;;;;;4983342;28;20109;-73
2022/11/15 08:04:46;;;;;;;6.95;3.85;;;10.30;99.90;;;;;;4965155;28;20468;-72
2022/11/15 08:07:12;;;;;;;11.25;4.93;;;10.30;99.90;;;;;;4978208;28;20037;-72
2022/11/15 08:09:38;;;;;;;7.35;3.95;;;10.40;99.90;;;;;;4995598;28;20041;-72
2022/11/15 08:12:04;;;;;;;8.57;4.25;;;10.40;99.90;;;;;;4955383;28;20043;-73
2022/11/15 08:14:29;;;;;;;9.27;5.18;;;10.40;99.90;;;;;;4977384;28;20058;-73
2022/11/15 08:16:55;;;;;;;11.02;3.88;;;10.40;99.90;;;;;;4974709;28;20034;-73
2022/11/15 08:19:21;;;;;;;13.05;4.95;;;10.30;99.90;;;;;;4976515;28;20737;-72
2022/11/15 08:21:46;;;;;;;10.68;4.50;;;10.40;99.90;;;;;;4990575;28;20042;-73
2022/11/15 08:24:12;;;;;;;10.50;4.47;;;10.40;99.90;;;;;;4961337;28;20042;-73
2022/11/15 08:26:39;;;;;;;5.63;3.47;;;10.40;99.90;;;;;;4981159;28;20046;-73
2022/11/15 08:29:05;;;;;;;11.27;5.50;;;10.50;99.90;;;;;;4964274;28;20037;-72
2022/11/15 08:31:31;;;;;;;10.48;4.75;;;10.50;99.90;;;;;;4960712;28;20423;-73
2022/11/15 08:33:56;;;;;;;10.27;4.90;;;10.50;99.90;;;;;;4983100;28;20035;-77
2022/11/15 08:36:22;;;;;;;13.45;5.32;;;10.50;99.90;;;;;;4979708;28;20495;-73
2022/11/15 08:38:48;;;;;;;9.95;3.85;;;10.60;99.90;;;;;;4978229;28;20462;-72
2022/11/15 08:41:27;;;;;;;8.88;4.75;;;10.60;99.90;;;;;;4981761;28;20061;-72
2022/11/15 08:43:53;;;;;;;9.18;4.55;;;10.60;99.90;;;;;;4974544;28;20034;-73
2022/11/15 08:46:19;;;;;;;9.05;4.53;;;10.70;99.90;;;;;;4978613;28;20393;-72
2022/11/15 08:48:45;;;;;;;10.57;4.55;;;10.70;99.90;;;;;;4981338;28;20026;-73
2022/11/15 08:51:10;;;;;;;11.38;5.15;;;10.80;99.90;;;;;;4979520;28;20641;-72
2022/11/15 08:53:36;;;;;;;11.73;4.70;;;10.80;99.90;;;;;;4993417;28;20055;-72
2022/11/15 08:56:02;;;;;;;10.55;4.65;;;10.80;99.90;;;;;;4977949;28;20202;-72
2022/11/15 08:58:28;;;;;;;9.93;3.92;;;10.80;99.90;;;;;;4995962;28;20034;-72
2022/11/15 09:00:54;;;;;;;10.27;4.03;;;10.80;99.90;;;;;;4977942;28;20468;-72
2022/11/15 09:03:20;;;;;;;8.15;4.22;;;10.80;99.90;;;;;;4977500;28;20141;-73
2022/11/15 09:05:46;;;;;;;6.95;3.63;;;10.80;99.90;;;;;;4979573;28;20133;-72
2022/11/15 09:08:12;;;;;;;11.38;4.93;;;10.80;99.90;;;;;;4962283;28;20432;-72
2022/11/15 09:10:38;;;;;;;9.07;4.30;;;10.90;99.90;;;;;;4961122;28;20424;-72
2022/11/15 09:13:03;;;;;;;8.43;4.00;;;10.90;99.90;;;;;;4956219;28;20521;-72
2022/11/15 09:15:29;;;;;;;8.93;5.07;;;10.90;99.90;;;;;;4957496;28;20042;-73
2022/11/15 09:17:58;;;;;;;10.23;4.55;;;10.90;99.90;;;;;;4960542;28;20129;-72
2022/11/15 09:20:24;;;;;;;10.20;4.22;;;10.90;99.90;;;;;;4943414;28;20039;-73
2022/11/15 09:22:49;;;;;;;11.23;4.57;;;11.00;99.90;;;;;;4957026;28;20319;-72
2022/11/15 09:25:15;;;;;;;11.25;3.72;;;11.00;99.90;;;;;;4960295;28;20150;-72
2022/11/15 09:27:40;;;;;;;10.18;3.85;;;11.00;99.90;;;;;;4957445;28;21010;-73
2022/11/15 09:30:06;;;;;;;9.23;3.97;;;11.00;99.90;;;;;;4956541;28;20100;-73
2022/11/15 09:32:32;;;;;;;8.00;3.83;;;11.10;99.90;;;;;;4955099;28;20062;-75
2022/11/15 09:34:58;;;;;;;8.75;4.10;;;11.10;99.90;;;;;;4931347;28;20142;-73
2022/11/15 09:37:23;;;;;;;10.27;4.70;;;11.10;99.90;;;;;;4958666;28;20038;-73
2022/11/15 09:39:49;;;;;;;9.60;3.67;;;11.10;99.90;;;;;;4974088;28;20492;-73
2022/11/15 09:42:30;;;;;;;7.95;3.50;;;11.10;99.90;;;;;;4953594;28;20081;-73
2022/11/15 09:45:08;;;;;;;7.38;3.70;;;11.10;99.90;;;;;;4977294;28;20041;-73
2022/11/15 09:47:57;;;;;;;8.82;4.55;;;11.10;99.90;;;;;;4971988;28;20046;-73
2022/11/15 09:50:48;;;;;;;9.88;3.45;;;11.10;99.90;;;;;;4958920;28;20477;-73
2022/11/15 09:53:56;;;;;;;8.13;3.05;;;11.10;99.90;;;;;;4950303;28;20046;-73
2022/11/15 09:56:26;;;;;;;6.60;3.67;;;11.10;99.90;;;;;;4944553;28;20050;-73
2022/11/15 09:59:19;;;;;;;6.03;3.00;;;11.10;99.90;;;;;;4960254;28;20420;-73
2022/11/15 10:02:02;;;;;;;8.75;3.55;;;11.10;99.90;;;;;;4958201;28;20059;-73
2022/11/15 10:04:28;;;;;;;7.00;3.40;;;11.10;99.90;;;;;;4959306;28;20062;-73
2022/11/15 10:07:13;;;;;;;7.80;3.55;;;11.20;99.90;;;;;;4954244;28;20059;-73
2022/11/15 10:09:53;;;;;;;4.95;2.83;;;11.10;99.90;;;;;;4957455;28;20042;-73
2022/11/15 10:12:19;;;;;;;8.10;3.55;;;11.10;99.90;;;;;;4973515;28;20070;-76
2022/11/15 10:14:46;;;;;;;6.53;2.95;;;11.10;99.90;;;;;;4972721;28;20165;-73
2022/11/15 10:17:35;;;;;;;6.53;3.17;;;11.20;99.90;;;;;;4957481;28;20503;-73
2022/11/15 10:20:24;;;;;;;7.30;3.97;;;11.20;99.90;;;;;;4953414;28;20563;-73
2022/11/15 10:22:53;;;;;;;8.18;3.08;;;11.10;99.90;;;;;;4957659;28;20077;-73
2022/11/15 10:25:23;;;;;;;8.75;3.30;;;11.10;99.90;;;;;;4956840;28;20453;-73
2022/11/15 10:28:01;;;;;;;7.22;3.35;;;11.10;99.90;;;;;;4957795;28;20065;-73
2022/11/15 10:30:37;;;;;;;6.25;2.58;;;11.20;99.90;;;;;;4975981;28;20047;-73
2022/11/15 10:33:17;;;;;;;;;;;11.10;99.90;;;;;;4957167;28;20486;-73
2022/11/15 10:35:43;;;;;;;5.47;3.10;;;11.20;99.90;;;;;;4955589;28;19922;-73
2022/11/15 10:38:11;;;;;;;7.90;3.03;;;11.20;99.90;;;;;;4954421;28;20053;-73
2022/11/15 10:40:39;;;;;;;6.38;2.92;;;11.20;99.90;;;;;;4956410;28;20049;-73
2022/11/15 10:43:17;;;;;;;5.25;2.80;;;11.30;99.90;;;;;;4957290;28;20484;-73
2022/11/15 10:45:44;;;;;;;5.75;2.67;;;11.30;99.90;;;;;;4955737;28;20042;-73
2022/11/15 10:48:12;;;;;;;5.50;3.13;;;11.40;99.90;;;;;;4959346;28;20031;-73
2022/11/15 10:50:40;;;;;;;5.70;2.53;;;11.40;99.90;;;;;;4960398;28;20131;-73
2022/11/15 10:53:28;;;;;;;8.00;2.60;;;11.50;99.90;;;;;;4975640;28;20107;-73
2022/11/15 10:55:57;;;;;;;4.28;2.10;;;11.50;99.90;;;;;;4941288;28;20039;-73
2022/11/15 10:58:54;;;;;;;6.63;2.88;;;11.50;99.90;;;;;;4956437;28;20448;-73
2022/11/15 11:01:23;;;;;;;5.40;3.08;;;11.50;99.90;;;;;;4956819;28;20142;-73
2022/11/15 11:04:03;;;;;;;5.97;2.47;;;11.50;99.90;;;;;;4961430;28;20054;-73
2022/11/15 11:06:29;;;;;;;6.20;2.83;;;11.50;99.90;;;;;;4957894;28;20046;-74
2022/11/15 11:09:01;;;;;;;5.22;2.65;;;11.50;99.90;;;;;;4956007;28;20046;-73
2022/11/15 11:11:47;;;;;;;3.83;2.22;;;11.50;99.90;;;;;;4962462;28;20089;-73
2022/11/15 11:14:26;;;;;;;4.88;2.42;;;11.60;99.90;;;;;;4959571;28;20038;-73
2022/11/15 11:16:57;;;;;;;4.75;2.60;;;11.60;99.90;;;;;;4962699;28;20035;-73
2022/11/15 11:19:47;;;;;;;4.35;2.47;;;11.60;99.90;;;;;;4959923;28;20396;-73
2022/11/15 11:22:19;;;;;;;4.43;2.20;;;11.50;99.90;;;;;;4964576;28;20051;-73
2022/11/15 11:25:13;;;;;;;5.20;2.55;;;11.50;99.90;;;;;;4960792;28;20054;-73
2022/11/15 11:28:10;;;;;;;4.57;1.88;;;11.50;99.90;;;;;;4978803;28;20059;-73
2022/11/15 11:31:18;;;;;;;4.20;2.20;;;11.50;99.90;;;;;;4959290;28;20496;-73
2022/11/15 11:33:55;;;;;;;6.05;1.85;;;11.50;99.90;;;;;;4934106;28;20046;-73
2022/11/15 11:36:27;;;;;;;4.05;2.13;;;11.50;99.90;;;;;;4976161;28;20500;-73
2022/11/15 11:39:17;;;;;;;4.15;1.95;;;11.50;99.90;;;;;;4957045;28;20455;-73
2022/11/15 11:42:04;;;;;;;7.68;1.40;;;11.50;99.90;;;;;;4952805;28;20440;-73
2022/11/15 11:44:42;;;;;;;3.47;1.73;;;11.50;99.90;;;;;;4957051;28;20034;-73
2022/11/15 11:47:11;;;;;;;3.33;1.77;;;11.50;99.90;;;;;;4958628;28;20248;-73
2022/11/15 11:49:56;;;;;;;4.82;1.85;;;11.50;99.90;;;;;;4955179;28;20046;-73
2022/11/15 11:52:31;;;;;;;4.13;1.58;;;11.40;99.90;;;;;;4956446;28;20121;-73
2022/11/15 11:55:00;;;;;;;2.50;1.48;;;11.40;99.90;;;;;;4955117;28;20069;-73
2022/11/15 11:57:43;;;;;;;3.72;1.80;;;11.40;99.90;;;;;;4958937;28;20054;-73
2022/11/15 12:00:25;;;;;;;3.83;1.67;;;11.30;99.90;;;;;;4971656;28;20059;-73
2022/11/15 12:03:19;;;;;;;4.65;1.55;;;11.30;99.90;;;;;;4957836;28;20046;-73
2022/11/15 12:05:53;;;;;;;4.32;2.10;;;11.30;99.90;;;;;;4976738;28;20046;-73
2022/11/15 12:08:26;;;;;;;2.78;1.55;;;11.30;99.90;;;;;;4975570;28;20075;-73
2022/11/15 12:11:19;;;;;;;4.43;2.38;;;11.30;99.90;;;;;;4975394;28;20047;-72
2022/11/15 12:13:50;;;;;;;4.57;1.65;;;11.30;99.90;;;;;;4960550;28;20043;-72
2022/11/15 12:16:27;;;;;;;5.65;1.92;;;11.30;99.90;;;;;;4959949;28;21638;-73
2022/11/15 12:18:54;;;;;;;5.57;1.70;;;11.20;99.90;;;;;;4961536;28;20743;-73
2022/11/15 12:21:34;;;;;;;3.38;1.75;;;11.20;99.90;;;;;;4945693;28;20045;-75
2022/11/15 12:24:32;;;;;;;4.25;1.90;;;11.20;99.90;;;;;;4956594;28;20043;-73
2022/11/15 12:27:12;;;;;;;3.88;2.05;;;11.30;99.90;;;;;;4942790;28;20160;-73
2022/11/15 12:29:44;;;;;;;4.28;2.10;;;11.20;99.90;;;;;;4974720;28;20401;-72
2022/11/15 12:32:22;;;;;;;3.13;1.95;;;11.30;99.90;;;;;;4958081;28;20031;-72
2022/11/15 12:34:50;;;;;;;3.53;1.90;;;11.30;99.90;;;;;;4960203;28;20598;-73
2022/11/15 12:37:42;;;;;;;3.85;1.52;;;11.40;99.90;;;;;;4961529;28;20090;-73
2022/11/15 12:40:29;;;;;;;3.63;1.48;;;11.40;99.90;;;;;;4961760;28;20039;-73
2022/11/15 12:43:01;;;;;;;5.25;1.75;;;11.40;99.90;;;;;;4946469;28;20506;-73
2022/11/15 12:45:30;;;;;;;2.47;1.35;;;11.40;99.90;;;;;;4961229;28;20046;-73
2022/11/15 12:48:16;;;;;;;2.20;1.10;;;11.40;99.90;;;;;;4977915;28;20034;-73
2022/11/15 12:50:51;;;;;;;1.83;1.00;;;11.50;99.90;;;;;;4921036;28;20102;-73
2022/11/15 12:53:23;;;;;;;2.80;1.52;;;11.50;99.90;;;;;;4959010;28;20708;-73
2022/11/15 12:56:17;;;;;;;3.15;1.65;;;11.60;99.90;;;;;;4944182;28;20556;-73
2022/11/15 12:58:56;;;;;;;2.50;1.10;;;11.60;99.90;;;;;;4960280;28;20436;-73
2022/11/15 13:01:31;;;;;;;4.85;1.45;;;11.70;99.90;;;;;;4974606;28;20090;-73
2022/11/15 13:04:19;;;;;;;2.33;1.17;;;11.70;99.90;;;;;;4947250;28;20042;-73
2022/11/15 13:06:51;;;;;;;2.30;1.05;;;11.70;99.90;;;;;;4961807;28;20362;-73
2022/11/15 13:09:28;;;;;;;1.85;1.08;;;11.70;99.90;;;;;;4957974;28;20121;-73
2022/11/15 13:11:55;;;;;;;1.48;0.98;;;11.70;99.90;;;;;;4959807;28;20395;-73
2022/11/15 13:14:36;;;;;;;1.77;0.90;;;11.70;99.90;;;;;;4941941;28;20612;-73
2022/11/15 13:17:12;;;;;;;3.00;1.23;;;11.80;99.90;;;;;;4962207;28;20035;-73
2022/11/15 13:19:38;;;;;;;;;;;11.80;99.90;;;;;;4961140;28;20456;-73
2022/11/15 13:24:52;;;;;;;4.13;1.20;;;11.80;99.90;;;;;;4959944;28;20054;-73
2022/11/15 13:27:19;;;;;;;1.90;0.93;;;11.70;99.90;;;;;;4962424;28;20400;-73
2022/11/15 13:29:45;;;;;;;3.05;1.38;;;11.70;99.90;;;;;;4957822;28;20288;-73
2022/11/15 13:32:13;;;;;;;3.20;1.08;;;11.70;99.90;;;;;;4959986;28;20619;-73
2022/11/15 13:34:46;;;;;;;2.00;0.98;;;11.60;99.90;;;;;;4956754;28;20101;-73